Image
Image
Image
Image
Image
Image
Image
Image
Image
Image
Image
Image
Image
City Time Now High Low DP Feels RH% Vsby Pressure Ceiling Direction Speed Gust Precip
Algona
MVFR
1:15PM 27° 46° 25° 18° 11° 68
%
10
mi
997.6
mb
1300
ft
NW 28
mph
38
mph
0.00"
KAXA 271915Z AUTO 32024G33KT 10SM OVC013 M03/M08 A2946 RMK A01
Ankeny
VFR
1:15PM 55° 61° 36° 34° 55° 44
%
10
mi
994.2
mb
None NW 16
mph
24
mph
0.00"
KIKV 271915Z AUTO 31014G21KT 10SM CLR 13/01 A2936 RMK AO2
Atlantic
MVFR
1:15PM 37° 54° 32° 28° 26° 70
%
10
mi
997.6
mb
1900
ft
NNW 23
mph
35
mph
0.00"
KAIO 271915Z AUTO 34020G30KT 10SM OVC019 03/M02 A2946 RMK AO2
Audubon
1:15PM 36° 54° 34° 27° 25° 69
%
10
mi
998.0
mb
NNW 18
mph
30
mph
0.00"
KADU 271915Z AUTO 33016G26KT 10SM 02/M03 A2947 RMK AO2
Ames
VFR
12:53PM 50° 61° 37° 31° 50° 48
%
10
mi
994.9
mb
None N 24
mph
33
mph
0.00"
KAMW 271853Z AUTO 35021G29KT 10SM CLR 10/M01 A2938 RMK AO2 PK WND 35029/1844 SLP948 T01001006
Boone
VFR
1:15PM 41° 55° 41° 28° 32° 61
%
10
mi
994.9
mb
None NW 17
mph
28
mph
0.00"
KBNW 271915Z AUTO 32015G24KT 10SM FEW120 05/M02 A2938 RMK AO2
Burlington
VFR
12:53PM 71° 71° 44° 52° 71° 51
%
10
mi
991.2
mb
None SSE 3
mph
0.00"
KBRL 271853Z AUTO 15003KT 10SM CLR 22/11 A2927 RMK AO2 SLP909 T02170111
Carroll
MVFR
1:15PM 34° 50° 34° 27° 20° 75
%
10
mi
997.6
mb
1700
ft
NNW 31
mph
38
mph
0.00"
KCIN 271915Z AUTO 33027G33KT 10SM OVC017 01/M03 A2946 RMK AO2
Cedar Rapids
VFR
12:52PM 71° 72° 44° 29° 71° 21
%
10
mi
991.5
mb
None NW 9
mph
0.00"
KCID 271852Z 31008KT 10SM CLR 22/M02 A2928 RMK AO2 SLP913 T02171017
Chariton
VFR
1:15PM 68° 70° 43° 32° 68° 26
%
10
mi
992.2
mb
None NW 20
mph
0.00"
KCNC 271915Z AUTO 32017KT 10SM CLR 20/00 A2930 RMK AO2
Charles City
VFR
1:15PM 43° 57° 32° 27° 34° 52
%
10
mi
993.9
mb
None WNW 22
mph
0.00"
KCCY 271915Z AUTO 30019KT 10SM FEW140 06/M03 A2935 RMK AO2
Clarinda
VFR
1:15PM 48° 61° 28° 48° 40° 100
%
10
mi
997.0
mb
None NNW 28
mph
0.00"
KICL 271915Z AUTO 34024KT 10SM CLR 09/09 A2944 RMK AO2
Clarion
MVFR
1:15PM 32° 50° 32° 25° 18° 74
%
10
mi
995.9
mb
1500
ft
NNW 28
mph
39
mph
0.00"
KCAV 271915Z AUTO 33024G34KT 10SM BKN015 M00/M04 A2941 RMK A01
Council Bluffs
MVFR
1:15PM 34° 55° 34° 21° 20° 60
%
4
mi
998.3
mb
None NNW 30
mph
41
mph
0.00"
KCBF 271915Z AUTO 33026G36KT 4SM HZ SCT023 01/M06 A2948 RMK AO2
Creston
VFR
1:15PM 48° 63° 36° 32° 40° 53
%
10
mi
994.6
mb
None NNW 26
mph
33
mph
0.00"
KCSQ 271915Z AUTO 33023G29KT 10SM CLR 09/M00 A2937 RMK AO2
Centerville
LIFR
1:15PM 77° 77° 43° 21° 77° 12
%
10
mi
991.2
mb
100
ft
VRB 3
mph
0.00"
KTVK 271915Z AUTO VRB03KT 10SM OVC001 25/M06 A2927 RMK AO2
Cherokee
MVFR
1:15PM 27° 43° 27° 19° 12° 73
%
10
mi
1000.7
mb
1800
ft
NNW 26
mph
32
mph
0.00"
KCKP 271915Z AUTO 34023G28KT 10SM OVC018 M03/M07 A2955 RMK AO2 T10281070
Decorah
VFR
1:15PM 59° 63° 37° 32° 59° 36
%
10
mi
991.5
mb
None W 12
mph
20
mph
0.00"
KDEH 271915Z AUTO 28010G17KT 230V320 10SM CLR 15/00 A2928 RMK AO2
Denison
MVFR
1:15PM 32° 48° 32° 25° 18° 74
%
10
mi
1000.0
mb
1900
ft
NNW 28
mph
40
mph
0.00"
KDNS 271915Z AUTO 34024G35KT 10SM OVC019 M00/M04 A2953 RMK AO2
Dubuque
VFR
12:53PM 71° 71° 38° 30° 71° 22
%
10
mi
991.5
mb
None WSW 9
mph
0.00"
KDBQ 271853Z 25008KT 10SM CLR 22/M01 A2928 RMK AO2 SLP913 T02171011
Des Moines
VFR
12:54PM 53° 64° 45° 33° 53° 46
%
10
mi
994.2
mb
None NW 17
mph
29
mph
0.00"
KDSM 271854Z 32015G25KT 10SM FEW000 FEW130 FEW170 FEW250 12/01 A2936 RMK AO2 PK WND 31029/1824 SLP943 FU FEW000 TCU DSNT NW ACC DSNT NW-NE T01170006
Estherville
MVFR
12:52PM 23° 42° 23° 14° 68
%
10
mi
999.0
mb
1600
ft
NNW 32
mph
45
mph
0.00"
KEST 271852Z AUTO 33028G39KT 10SM OVC016 M05/M10 A2950 RMK AO2 PK WND 33042/1806 SLP001 T10501100
Fairfield
VFR
1:15PM 77° 77° 46° 21° 77° 12
%
10
mi
990.5
mb
None None Calm 0.00"
KFFL 271915Z AUTO 00000KT 10SM CLR 25/M06 A2925 RMK A01
Fort Dodge
MVFR
12:56PM 35° 48° 31° 23° 24° 61
%
10
mi
997.0
mb
2100
ft
N 18
mph
29
mph
0.00"
KFOD 271856Z AUTO 35016G25KT 10SM BKN021 02/M05 A2944 RMK AO2 SLP991 T00171050 FZRANO
Fort Madison
1:15PM 75° 75° 46° 52° 75° 44
%
10
mi
990.9
mb
SSE 8
mph
0.00"
KFSW 271915Z AUTO 16007KT 130V190 10SM 24/11 A2926 RMK AO2
Forest City
MVFR
1:15PM 28° 46° 25° 19° 14° 69
%
10
mi
996.3
mb
1400
ft
NW 23
mph
33
mph
0.00"
KFXY 271915Z AUTO 31020G29KT 10SM OVC014 M02/M07 A2942 RMK AO2
Grinnell
VFR
1:15PM 67° 70° 45° 32° 67° 28
%
10
mi
992.6
mb
None NW 21
mph
25
mph
0.00"
KGGI 271915Z AUTO 32018G22KT 10SM CLR 19/00 A2931 RMK AO2 T01930002
Harlan
MVFR
1:15PM 36° 50° 36° 25° 22° 64
%
10
mi
998.6
mb
1900
ft
NNW 32
mph
38
mph
0.00"
KHNR 271915Z AUTO 34028G33KT 10SM OVC019 02/M04 A2949 RMK A01
Hampton
VFR
1:15PM 39° 55° 34° 19° 29° 45
%
10
mi
994.6
mb
None NNW 21
mph
32
mph
0.00"
KHPT 271915Z AUTO 33018G28KT 10SM CLR 04/M07 A2937 RMK AO2
Independence
VFR
1:15PM 68° 68° 32° 30° 68° 24
%
10
mi
992.2
mb
None NW 16
mph
0.00"
KIIB 271915Z AUTO 32014KT 10SM CLR 20/M01 A2930 RMK AO2 T02001010
Iowa City
VFR
12:52PM 74° 74° 38° 34° 74° 23
%
10
mi
991.9
mb
None None Calm 0.00"
KIOW 271852Z AUTO 00000KT 10SM CLR 23/01 A2929 RMK AO2 SLP914 T02330011
Iowa Falls
VFR
1:15PM 42° 57° 33° 24° 33° 48
%
10
mi
995.3
mb
None NW 21
mph
31
mph
0.00"
KIFA 271915Z AUTO 32018G27KT 10SM CLR 06/M05 A2939 RMK AO2 T00551047
Keokuk
VFR
1:15PM 75° 75° 52° 50° 75° 41
%
10
mi
990.9
mb
None VRB 7
mph
0.00"
KEOK 271915Z AUTO VRB06KT 10SM CLR 24/10 A2926 RMK A01
Knoxville
VFR
1:15PM 66° 68° 46° 30° 66° 26
%
10
mi
992.2
mb
None NNW 20
mph
25
mph
0.00"
KOXV 271915Z AUTO 33017G22KT 10SM CLR 19/M01 A2930 RMK AO2
Lamoni
VFR
12:53PM 73° 73° 43° 26° 73° 17
%
10
mi
991.9
mb
None NNE 6
mph
0.00"
KLWD 271853Z AUTO 03005KT 10SM CLR 23/M03 A2929 RMK AO2 SLP912 T02281033
Le Mars
MVFR
1:15PM 25° 43° 23° 14° 10° 63
%
10
mi
1002.0
mb
2400
ft
NNW 21
mph
33
mph
0.00"
KLRJ 271915Z AUTO 33018G29KT 10SM OVC024 M04/M10 A2959 RMK AO2
Marshalltown
VFR
12:53PM 59° 65° 40° 33° 59° 37
%
10
mi
993.2
mb
None NW 23
mph
0.00"
KMIW 271853Z AUTO 31020KT 10SM CLR 15/01 A2933 RMK AO2 PK WND 29026/1804 SLP930 T01500006
Mason City
VFR
12:53PM 33° 51° 25° 22° 19° 64
%
10
mi
995.6
mb
None NW 28
mph
38
mph
0.00"
KMCW 271853Z AUTO 31024G33KT 10SM CLR 01/M06 A2940 RMK AO2 PK WND 32034/1830 SLP963 T00061056
Monticello
VFR
1:15PM 72° 72° 37° 27° 72° 19
%
10
mi
990.5
mb
None W 7
mph
0.00"
KMXO 271915Z AUTO 27006KT 10SM CLR 22/M03 A2925 RMK AO2
Mount Pleasant
VFR
1:15PM 77° 77° 43° 41° 77° 28
%
10
mi
990.5
mb
None SE 7
mph
0.00"
KMPZ 271915Z AUTO 13006KT 10SM CLR 25/05 A2925 RMK AO2
Muscatine
VFR
12:35PM 75° 75° 39° 32° 75° 20
%
10
mi
991.5
mb
None VRB 3
mph
0.00"
KMUT 271835Z AUTO VRB03KT 10SM CLR 24/00 A2928 RMK AO2
Newton
VFR
1:15PM 63° 66° 45° 32° 63° 32
%
10
mi
992.2
mb
None NW 16
mph
22
mph
0.00"
KTNU 271915Z AUTO 31014G19KT 10SM CLR 17/00 A2930 RMK A01
Oelwein
VFR
1:15PM 63° 66° 34° 30° 63° 29
%
10
mi
991.9
mb
None WNW 17
mph
25
mph
0.00"
KOLZ 271915Z AUTO 30015G22KT 10SM CLR 17/M01 A2929 RMK A01
Ottumwa
VFR
12:53PM 74° 74° 46° 30° 74° 20
%
10
mi
991.2
mb
None NNW 7
mph
0.00"
KOTM 271853Z AUTO 34006KT 10SM CLR 23/M01 A2927 RMK AO2 SLP906 T02331011
Osceola
VFR
1:15PM 60° 71° 39° 35° 60° 39
%
10
mi
993.6
mb
None NNW 22
mph
25
mph
0.00"
KI75 271915Z AUTO 33019G22KT 10SM CLR 16/02 A2934 RMK AO2 T01570016
Oskaloosa
VFR
1:15PM 75° 75° 44° 28° 75° 17
%
10
mi
991.5
mb
None NNW 13
mph
0.00"
KOOA 271915Z AUTO 34011KT 10SM CLR 24/M02 A2928 RMK AO2 T02411023
Pella
VFR
1:15PM 66° 69° 44° 31° 66° 26
%
10
mi
992.2
mb
None WNW 20
mph
29
mph
0.00"
KPEA 271915Z AUTO 30017G25KT 10SM CLR 19/M01 A2930 RMK AO2 T01911007
Perry
VFR
1:15PM 46° 58° 37° 28° 38° 49
%
10
mi
996.3
mb
None NNW 24
mph
35
mph
0.00"
KPRO 271915Z AUTO 33021G30KT 10SM SCT120 08/M02 A2942 RMK AO2 T00781024
Quad Cities
VFR
12:52PM 75° 75° 47° 35° 75° 23
%
10
mi
992.2
mb
None SSW 8
mph
0.00"
KDVN 271852Z AUTO 20007KT 10SM CLR 24/02 A2930 RMK AO2 SLP914 T02390017
Red Oak
1:15PM 43° 55° 32° 28° 33° 56
%
10
mi
997.6
mb
NNW 24
mph
36
mph
0.00"
KRDK 271915Z AUTO 34021G31KT 10SM 06/M02 A2946 RMK AO2
Sheldon
MVFR
1:15PM 27° 43° 23° 16° 63
%
10
mi
1000.7
mb
2000
ft
NNW 33
mph
40
mph
0.00"
KSHL 271915Z AUTO 33029G35KT 10SM OVC020 M03/M09 A2955 RMK AO2
Shenandoah
VFR
1:15PM 45° 57° 32° 28° 36° 53
%
10
mi
997.3
mb
None N 22
mph
35
mph
0.00"
KSDA 271915Z AUTO 35019G30KT 10SM CLR 07/M02 A2945 RMK AO2
Sioux City
MVFR
12:52PM 25° 48° 25° 13° 60
%
10
mi
1002.0
mb
2500
ft
NNW 33
mph
48
mph
0.00"
KSUX 271852Z 33029G42KT 10SM OVC025 M04/M11 A2959 RMK AO2 PK WND 33042/1848 SLP029 T10391106
Spencer
MVFR
12:53PM 26° 42° 26° 14° 60
%
10
mi
999.7
mb
1800
ft
NNW 30
mph
43
mph
0.00"
KSPW 271853Z AUTO 34026G37KT 10SM OVC018 M03/M10 A2952 RMK AO2 PK WND 33041/1840 SLP011 T10331100
Sioux County
MVFR
1:15PM 25° 43° 23° 14° 63
%
10
mi
1001.7
mb
2200
ft
NNW 37
mph
43
mph
0.00"
KSXK 271915Z AUTO 34032G37KT 10SM -UP OVC022 M04/M10 A2958 RMK AO2
Storm Lake
MVFR
1:15PM 28° 48° 28° 21° 12° 74
%
10
mi
999.0
mb
1400
ft
NNW 32
mph
40
mph
0.00"
KSLB 271915Z AUTO 34028G35KT 10SM OVC014 M02/M06 A2950 RMK AO2
Vinton
VFR
1:15PM 67° 68° 37° 30° 67° 25
%
10
mi
992.2
mb
None W 9
mph
20
mph
0.00"
KVTI 271915Z AUTO 27008G17KT 10SM CLR 20/M01 A2930 RMK AO2 T01961009
Washington
1:15PM 75° 75° 43° 27° 75° 16
%
10
mi
990.5
mb
None Calm 0.00"
KAWG 271915Z AUTO 00000KT 10SM 24/M03 A2925 RMK AO2
Waterloo
VFR
12:54PM 62° 67° 29° 32° 62° 32
%
10
mi
992.6
mb
None NW 21
mph
29
mph
0.00"
KALO 271854Z 31018G25KT 10SM CLR 17/00 A2931 RMK AO2 SLP923 T01670000
Webster City
VFR
1:15PM 36° 52° 32° 23° 23° 60
%
10
mi
995.6
mb
None NNW 29
mph
37
mph
0.00"
KEBS 271915Z AUTO 33025G32KT 10SM -UP CLR 02/M05 A2940 RMK AO2
Click here to show this page without METARs included